Time;durP1;ratioP1;P1;durP2;ratioP2;P2;SDS_P1;SDS_P2;PMS_P1;PMS_P2;Temp;Humidity;BMP_temperature;BMP_pressure;BME280_temperature;BME280_humidity;BME280_pressure;Samples;Min_cycle;Max_cycle;Signal;HPM_P1;HPM_P2
2022/03/11 00:02:21;;;;;;;7.22;1.15;;;;;;;;;;5036989;28;20481;-61
2022/03/11 00:04:47;;;;;;;7.05;1.00;;;;;;;;;;5049617;28;20040;-61
2022/03/11 00:07:14;;;;;;;2.55;0.93;;;;;;;;;;5041095;28;20120;-61
2022/03/11 00:09:40;;;;;;;2.05;0.95;;;;;;;;;;5042066;28;20033;-61
2022/03/11 00:12:07;;;;;;;2.78;1.05;;;;;;;;;;5048561;28;20029;-61
2022/03/11 00:14:34;;;;;;;3.28;0.90;;;;;;;;;;5048453;28;20465;-61
2022/03/11 00:17:00;;;;;;;3.08;1.00;;;;;;;;;;5039347;28;20012;-61
2022/03/11 00:19:26;;;;;;;1.52;1.00;;;;;;;;;;5048423;28;20036;-61
2022/03/11 00:21:55;;;;;;;4.47;0.93;;;;;;;;;;5040724;28;20071;-61
2022/03/11 00:24:22;;;;;;;4.07;0.93;;;;;;;;;;5049948;28;20040;-61
2022/03/11 00:26:48;;;;;;;1.67;1.00;;;;;;;;;;5048434;28;20021;-61
2022/03/11 00:29:14;;;;;;;2.53;0.77;;;;;;;;;;5040755;28;20101;-61
2022/03/11 00:31:40;;;;;;;2.45;0.90;;;;;;;;;;5042009;28;20485;-61
2022/03/11 00:34:06;;;;;;;5.20;0.90;;;;;;;;;;5047751;28;20032;-61
2022/03/11 00:36:33;;;;;;;2.50;0.90;;;;;;;;;;5036123;28;20029;-61
2022/03/11 00:38:59;;;;;;;3.08;0.75;;;;;;;;;;5047917;28;20028;-61
2022/03/11 00:41:25;;;;;;;2.05;0.50;;;;;;;;;;5034110;28;20033;-61
2022/03/11 00:43:51;;;;;;;2.42;0.73;;;;;;;;;;5045240;28;20521;-61
2022/03/11 00:46:17;;;;;;;2.30;0.80;;;;;;;;;;5037753;28;20075;-61
2022/03/11 00:48:43;;;;;;;1.77;0.70;;;;;;;;;;5049338;28;20068;-61
2022/03/11 00:51:10;;;;;;;3.13;0.80;;;;;;;;;;5038943;28;20025;-61
2022/03/11 00:53:36;;;;;;;2.10;0.70;;;;;;;;;;5035737;28;20018;-61
2022/03/11 00:56:02;;;;;;;3.03;1.23;;;;;;;;;;5039627;28;20033;-61
2022/03/11 00:58:28;;;;;;;2.58;0.95;;;;;;;;;;5048704;28;20037;-61
2022/03/11 01:00:54;;;;;;;5.32;1.00;;;;;;;;;;5034661;28;20029;-61
2022/03/11 01:03:20;;;;;;;2.60;1.02;;;;;;;;;;5034470;28;20033;-61
2022/03/11 01:05:46;;;;;;;3.97;0.90;;;;;;;;;;5037306;28;20033;-61
2022/03/11 01:08:13;;;;;;;2.38;1.10;;;;;;;;;;5040030;28;20545;-61
2022/03/11 01:10:40;;;;;;;3.78;1.00;;;;;;;;;;5046740;28;20029;-61
2022/03/11 01:13:07;;;;;;;3.17;1.05;;;;;;;;;;5049192;28;20048;-61
2022/03/11 01:15:33;;;;;;;4.25;1.27;;;;;;;;;;5045098;28;20025;-61
2022/03/11 01:17:59;;;;;;;1.92;0.93;;;;;;;;;;5044804;28;20065;-61
2022/03/11 01:20:25;;;;;;;5.78;1.00;;;;;;;;;;5036359;28;20124;-61
2022/03/11 01:22:52;;;;;;;4.70;1.27;;;;;;;;;;5048510;28;20482;-61
2022/03/11 01:25:19;;;;;;;4.78;1.48;;;;;;;;;;5047386;28;20033;-61
2022/03/11 01:27:45;;;;;;;3.58;1.33;;;;;;;;;;5043887;28;20515;-61
2022/03/11 01:30:16;;;;;;;2.00;0.80;;;;;;;;;;5038457;28;20029;-61
2022/03/11 01:32:42;;;;;;;4.32;1.13;;;;;;;;;;5034028;28;20092;-61
2022/03/11 01:35:09;;;;;;;2.15;1.20;;;;;;;;;;5047000;28;20076;-61
2022/03/11 01:37:36;;;;;;;3.20;1.17;;;;;;;;;;5041538;28;20021;-61
2022/03/11 01:40:03;;;;;;;3.97;1.40;;;;;;;;;;5051096;28;20029;-61
2022/03/11 01:42:32;;;;;;;6.03;1.08;;;;;;;;;;5036410;28;20462;-61
2022/03/11 01:44:58;;;;;;;9.73;1.55;;;;;;;;;;5048880;28;20042;-61
2022/03/11 01:47:24;;;;;;;4.90;1.50;;;;;;;;;;5033188;28;20120;-61
2022/03/11 01:49:50;;;;;;;3.17;1.85;;;;;;;;;;5041653;28;20040;-61
2022/03/11 01:52:17;;;;;;;2.90;1.30;;;;;;;;;;5038074;28;20021;-61
2022/03/11 01:54:43;;;;;;;2.65;1.40;;;;;;;;;;5042195;28;20120;-61
2022/03/11 01:57:10;;;;;;;5.82;1.60;;;;;;;;;;5047404;28;20068;-61
2022/03/11 01:59:36;;;;;;;6.43;1.63;;;;;;;;;;5038151;28;20030;-61
2022/03/11 02:02:03;;;;;;;4.80;1.70;;;;;;;;;;5035069;28;20032;-61
2022/03/11 02:04:29;;;;;;;3.45;1.52;;;;;;;;;;5047592;28;20412;-61
2022/03/11 02:06:55;;;;;;;4.30;1.58;;;;;;;;;;5035327;28;20037;-61
2022/03/11 02:09:21;;;;;;;4.95;1.40;;;;;;;;;;5041247;28;20060;-61
2022/03/11 02:11:47;;;;;;;10.00;2.25;;;;;;;;;;5045388;28;20226;-61
2022/03/11 02:14:14;;;;;;;8.00;2.13;;;;;;;;;;5038779;28;20033;-61
2022/03/11 02:16:40;;;;;;;3.95;1.92;;;;;;;;;;5041438;28;20124;-61
2022/03/11 02:19:07;;;;;;;7.13;2.00;;;;;;;;;;5035827;28;20026;-61
2022/03/11 02:21:44;;;;;;;10.18;1.67;;;;;;;;;;5048721;28;20025;-61
2022/03/11 02:24:14;;;;;;;5.90;2.05;;;;;;;;;;5038435;28;20080;-61
2022/03/11 02:26:41;;;;;;;3.08;1.60;;;;;;;;;;5047698;28;20420;-61
2022/03/11 02:29:07;;;;;;;6.38;1.85;;;;;;;;;;5035557;28;20033;-61
2022/03/11 02:31:34;;;;;;;3.10;1.80;;;;;;;;;;5044564;28;20057;-61
2022/03/11 02:34:01;;;;;;;3.97;1.58;;;;;;;;;;5043798;28;20036;-61
2022/03/11 02:36:27;;;;;;;5.10;1.90;;;;;;;;;;5041606;28;20025;-61
2022/03/11 02:38:53;;;;;;;2.20;1.50;;;;;;;;;;5038106;28;20026;-61
2022/03/11 02:41:22;;;;;;;3.60;1.77;;;;;;;;;;5049842;28;20029;-61
2022/03/11 02:43:49;;;;;;;3.92;1.55;;;;;;;;;;5044687;28;20024;-61
2022/03/11 02:46:15;;;;;;;2.42;1.70;;;;;;;;;;5043255;28;20033;-61
2022/03/11 02:48:41;;;;;;;2.40;1.60;;;;;;;;;;5039028;28;20104;-61
2022/03/11 02:51:07;;;;;;;7.20;1.92;;;;;;;;;;5051645;28;20421;-61
2022/03/11 02:53:37;;;;;;;6.20;1.83;;;;;;;;;;5042441;28;20032;-61
2022/03/11 02:56:05;;;;;;;4.65;1.67;;;;;;;;;;5048735;28;20064;-61
2022/03/11 02:58:34;;;;;;;2.88;1.85;;;;;;;;;;5040141;28;20155;-61
2022/03/11 03:01:04;;;;;;;4.88;1.98;;;;;;;;;;5040338;28;20032;-61
2022/03/11 03:03:30;;;;;;;3.38;1.63;;;;;;;;;;5041638;28;20037;-61
2022/03/11 03:05:56;;;;;;;3.83;2.03;;;;;;;;;;5045408;28;20055;-61
2022/03/11 03:08:22;;;;;;;4.80;1.70;;;;;;;;;;5048761;28;20385;-61
2022/03/11 03:10:48;;;;;;;3.42;1.90;;;;;;;;;;5051406;28;20036;-61
2022/03/11 03:13:14;;;;;;;4.78;1.83;;;;;;;;;;5038806;28;20128;-61
2022/03/11 03:15:40;;;;;;;3.08;1.88;;;;;;;;;;5047288;28;20662;-61
2022/03/11 03:18:07;;;;;;;6.18;2.40;;;;;;;;;;5045327;28;20043;-61
2022/03/11 03:20:33;;;;;;;5.35;2.20;;;;;;;;;;5039667;28;20026;-61
2022/03/11 03:22:59;;;;;;;7.15;2.35;;;;;;;;;;5051012;28;20396;-61
2022/03/11 03:25:25;;;;;;;4.60;2.25;;;;;;;;;;5039979;28;20086;-61
2022/03/11 03:27:52;;;;;;;5.13;2.45;;;;;;;;;;5045999;28;20034;-61
2022/03/11 03:30:19;;;;;;;6.13;2.58;;;;;;;;;;5041249;28;20029;-61
2022/03/11 03:32:45;;;;;;;9.07;2.85;;;;;;;;;;5046376;28;20030;-61
2022/03/11 03:35:12;;;;;;;5.18;2.70;;;;;;;;;;5039087;28;20057;-61
2022/03/11 03:37:38;;;;;;;3.67;2.55;;;;;;;;;;5041557;28;20042;-61
2022/03/11 03:40:05;;;;;;;3.65;2.50;;;;;;;;;;5043619;28;20028;-61
2022/03/11 03:42:31;;;;;;;7.45;2.50;;;;;;;;;;5044452;28;20032;-61
2022/03/11 03:44:57;;;;;;;6.40;3.03;;;;;;;;;;5038755;28;20048;-61
2022/03/11 03:47:24;;;;;;;4.25;2.53;;;;;;;;;;5034221;28;20040;-61
2022/03/11 03:49:50;;;;;;;5.15;3.10;;;;;;;;;;5045148;28;20128;-61
2022/03/11 03:52:17;;;;;;;4.95;2.30;;;;;;;;;;5038974;28;20053;-61
2022/03/11 03:54:44;;;;;;;7.35;3.13;;;;;;;;;;5034008;28;20021;-61
2022/03/11 03:57:11;;;;;;;5.18;2.70;;;;;;;;;;5034258;28;20055;-61
2022/03/11 03:59:39;;;;;;;7.60;2.90;;;;;;;;;;5033566;28;20029;-61
2022/03/11 04:02:05;;;;;;;4.68;3.17;;;;;;;;;;5037416;28;20493;-61
2022/03/11 04:04:32;;;;;;;6.40;3.08;;;;;;;;;;5033501;28;20033;-61
2022/03/11 04:06:58;;;;;;;9.50;3.30;;;;;;;;;;5043143;28;20393;-61
2022/03/11 04:09:24;;;;;;;5.47;3.50;;;;;;;;;;5033923;28;20037;-61
2022/03/11 04:11:50;;;;;;;4.05;2.78;;;;;;;;;;5036589;28;20033;-61
2022/03/11 04:14:16;;;;;;;9.20;3.45;;;;;;;;;;5040435;28;20036;-61
2022/03/11 04:16:42;;;;;;;9.70;4.30;;;;;;;;;;5033704;28;20036;-61
2022/03/11 04:19:08;;;;;;;7.40;3.70;;;;;;;;;;5033293;28;20497;-61
2022/03/11 04:21:35;;;;;;;9.65;4.22;;;;;;;;;;5041763;28;20052;-61
2022/03/11 04:24:01;;;;;;;11.23;4.38;;;;;;;;;;5033393;28;20532;-61
2022/03/11 04:26:27;;;;;;;8.10;4.63;;;;;;;;;;5035478;28;20116;-61
2022/03/11 04:28:53;;;;;;;16.80;5.68;;;;;;;;;;5046539;28;20389;-61
2022/03/11 04:31:19;;;;;;;9.52;5.43;;;;;;;;;;5033078;28;20037;-61
2022/03/11 04:33:45;;;;;;;9.55;5.85;;;;;;;;;;5033063;28;20080;-61
2022/03/11 04:36:12;;;;;;;14.32;5.90;;;;;;;;;;5042859;28;20017;-61
2022/03/11 04:38:38;;;;;;;8.65;5.55;;;;;;;;;;5048916;28;20025;-61
2022/03/11 04:41:05;;;;;;;9.48;5.65;;;;;;;;;;5045342;28;20045;-61
2022/03/11 04:43:32;;;;;;;10.80;6.25;;;;;;;;;;5048723;28;20071;-61
2022/03/11 04:45:58;;;;;;;11.18;5.93;;;;;;;;;;5048450;28;20468;-61
2022/03/11 04:48:24;;;;;;;11.82;6.65;;;;;;;;;;5041673;28;20025;-61
2022/03/11 04:50:51;;;;;;;13.02;7.30;;;;;;;;;;5035411;28;20449;-61
2022/03/11 04:53:17;;;;;;;11.48;6.97;;;;;;;;;;5048332;28;20099;-61
2022/03/11 04:55:43;;;;;;;10.63;7.35;;;;;;;;;;5038734;28;20022;-61
2022/03/11 04:58:09;;;;;;;17.10;7.72;;;;;;;;;;5041882;28;20096;-61
2022/03/11 05:00:35;;;;;;;14.73;7.63;;;;;;;;;;5048986;28;20037;-61
2022/03/11 05:03:01;;;;;;;17.52;8.10;;;;;;;;;;5036399;28;20025;-61
2022/03/11 05:05:29;;;;;;;15.20;7.85;;;;;;;;;;5048665;28;20109;-61
2022/03/11 05:07:55;;;;;;;18.10;7.97;;;;;;;;;;5037374;28;20087;-61
2022/03/11 05:10:21;;;;;;;14.88;8.57;;;;;;;;;;5032547;28;20037;-61
2022/03/11 05:12:47;;;;;;;13.65;7.97;;;;;;;;;;5042228;28;20585;-61
2022/03/11 05:15:14;;;;;;;15.48;7.68;;;;;;;;;;5035712;28;20060;-61
2022/03/11 05:17:40;;;;;;;16.42;8.80;;;;;;;;;;5048014;28;20033;-61
2022/03/11 05:20:07;;;;;;;13.23;7.35;;;;;;;;;;5040522;28;20026;-61
2022/03/11 05:22:33;;;;;;;16.05;7.53;;;;;;;;;;5032796;28;20112;-61
2022/03/11 05:24:59;;;;;;;15.90;8.32;;;;;;;;;;5047861;28;20075;-61
2022/03/11 05:27:26;;;;;;;11.05;7.57;;;;;;;;;;5035261;28;20469;-61
2022/03/11 05:29:52;;;;;;;13.30;7.85;;;;;;;;;;5046377;28;20022;-61
2022/03/11 05:32:20;;;;;;;15.38;7.72;;;;;;;;;;5032875;28;20472;-61
2022/03/11 05:34:47;;;;;;;19.70;8.05;;;;;;;;;;5042542;28;20037;-61
2022/03/11 05:37:15;;;;;;;12.05;7.50;;;;;;;;;;5046468;28;20025;-62
2022/03/11 05:39:41;;;;;;;12.80;7.55;;;;;;;;;;5036794;28;20044;-61
2022/03/11 05:42:08;;;;;;;13.52;7.30;;;;;;;;;;5044484;28;20033;-61
2022/03/11 05:44:34;;;;;;;18.67;8.85;;;;;;;;;;5044935;28;20140;-61
2022/03/11 05:47:00;;;;;;;14.73;7.43;;;;;;;;;;5036230;28;20378;-61
2022/03/11 05:49:26;;;;;;;14.88;7.82;;;;;;;;;;5045494;28;20032;-62
2022/03/11 05:51:52;;;;;;;10.52;6.63;;;;;;;;;;5039092;28;20527;-61
2022/03/11 05:54:19;;;;;;;15.15;8.15;;;;;;;;;;5042649;28;20044;-61
2022/03/11 05:56:50;;;;;;;11.70;8.05;;;;;;;;;;5045934;28;20037;-62
2022/03/11 05:59:16;;;;;;;15.10;7.85;;;;;;;;;;5036198;28;20480;-61
2022/03/11 06:01:43;;;;;;;11.98;7.57;;;;;;;;;;5041541;28;20063;-62
2022/03/11 06:04:09;;;;;;;17.02;9.57;;;;;;;;;;5041881;28;20044;-61
2022/03/11 06:06:37;;;;;;;17.35;9.07;;;;;;;;;;5045496;28;20025;-61
2022/03/11 06:09:03;;;;;;;13.00;7.40;;;;;;;;;;5038082;28;20029;-62
2022/03/11 06:11:30;;;;;;;16.40;7.50;;;;;;;;;;5037815;28;20028;-61
2022/03/11 06:13:56;;;;;;;16.00;7.95;;;;;;;;;;5050424;28;20048;-61
2022/03/11 06:16:22;;;;;;;14.00;7.32;;;;;;;;;;5051871;28;20036;-62
2022/03/11 06:18:48;;;;;;;13.45;7.03;;;;;;;;;;5048979;28;20107;-61
2022/03/11 06:21:14;;;;;;;17.33;10.23;;;;;;;;;;5053356;28;20033;-61
2022/03/11 06:23:40;;;;;;;15.35;7.70;;;;;;;;;;5040581;28;20061;-61
2022/03/11 06:26:06;;;;;;;12.38;6.80;;;;;;;;;;5038892;28;20034;-61
2022/03/11 06:28:32;;;;;;;17.23;7.78;;;;;;;;;;5037999;28;20025;-61
2022/03/11 06:30:58;;;;;;;10.85;6.88;;;;;;;;;;5044092;28;20021;-61
2022/03/11 06:33:24;;;;;;;11.48;6.65;;;;;;;;;;5055099;28;20033;-61
2022/03/11 06:35:51;;;;;;;10.82;6.97;;;;;;;;;;5050456;28;20413;-61
2022/03/11 06:38:17;;;;;;;14.57;7.53;;;;;;;;;;5048166;28;20025;-66
2022/03/11 06:40:49;;;;;;;11.33;6.67;;;;;;;;;;5044940;28;20116;-62
2022/03/11 06:43:16;;;;;;;13.25;7.07;;;;;;;;;;5043071;28;20045;-62
2022/03/11 06:45:42;;;;;;;11.90;7.03;;;;;;;;;;5038818;28;20067;-62
2022/03/11 06:48:08;;;;;;;10.90;6.18;;;;;;;;;;5035876;28;20036;-63
2022/03/11 06:50:34;;;;;;;10.95;6.00;;;;;;;;;;5051224;28;20492;-63
2022/03/11 06:53:00;;;;;;;9.20;6.70;;;;;;;;;;5039274;28;20070;-62
2022/03/11 06:55:27;;;;;;;15.07;6.38;;;;;;;;;;5045969;28;20632;-63
2022/03/11 06:57:53;;;;;;;11.80;6.35;;;;;;;;;;5044063;28;20044;-63
2022/03/11 07:00:19;;;;;;;9.07;6.10;;;;;;;;;;5046840;28;20400;-63
2022/03/11 07:02:45;;;;;;;11.18;6.43;;;;;;;;;;5045330;28;20086;-63
2022/03/11 07:05:12;;;;;;;9.57;5.30;;;;;;;;;;5043231;28;20040;-62
2022/03/11 07:07:38;;;;;;;9.80;5.80;;;;;;;;;;5037626;28;20041;-63
2022/03/11 07:10:05;;;;;;;8.38;5.43;;;;;;;;;;5047618;28;20029;-62
2022/03/11 07:12:32;;;;;;;10.43;5.63;;;;;;;;;;5053619;28;20044;-62
2022/03/11 07:15:04;;;;;;;8.98;5.05;;;;;;;;;;5051772;28;20026;-62
2022/03/11 07:17:30;;;;;;;8.10;5.05;;;;;;;;;;5048554;28;20036;-62
2022/03/11 07:19:56;;;;;;;9.68;5.35;;;;;;;;;;5048291;28;20390;-62
2022/03/11 07:22:22;;;;;;;9.75;5.70;;;;;;;;;;5041058;28;20111;-62
2022/03/11 07:24:48;;;;;;;8.50;5.45;;;;;;;;;;5044207;28;20033;-62
2022/03/11 07:27:15;;;;;;;9.93;5.20;;;;;;;;;;5045345;28;20021;-62
2022/03/11 07:29:41;;;;;;;11.85;5.40;;;;;;;;;;5039324;28;20071;-62
2022/03/11 07:32:08;;;;;;;10.68;5.22;;;;;;;;;;5039727;28;20446;-62
2022/03/11 07:34:34;;;;;;;9.40;5.65;;;;;;;;;;5042040;28;20040;-62
2022/03/11 07:37:01;;;;;;;9.50;5.32;;;;;;;;;;5040018;28;20095;-62
2022/03/11 07:39:27;;;;;;;7.47;5.00;;;;;;;;;;5038715;28;20025;-62
2022/03/11 07:41:53;;;;;;;12.60;4.90;;;;;;;;;;5042997;28;20497;-62
2022/03/11 07:44:20;;;;;;;7.65;4.43;;;;;;;;;;5041837;28;20029;-62
2022/03/11 07:46:46;;;;;;;7.90;4.10;;;;;;;;;;5039789;28;20128;-62
2022/03/11 07:49:12;;;;;;;5.22;3.20;;;;;;;;;;5039592;28;20094;-62
2022/03/11 07:51:39;;;;;;;7.57;3.55;;;;;;;;;;5040209;28;20041;-62
2022/03/11 07:54:05;;;;;;;5.85;3.17;;;;;;;;;;5043672;28;20013;-62
2022/03/11 07:56:31;;;;;;;4.95;3.05;;;;;;;;;;5035165;28;20548;-62
2022/03/11 07:58:57;;;;;;;6.30;3.47;;;;;;;;;;5041356;28;20104;-62
2022/03/11 08:01:23;;;;;;;5.05;3.58;;;;;;;;;;5041946;28;20061;-62
2022/03/11 08:03:50;;;;;;;4.85;2.95;;;;;;;;;;5041923;28;20029;-62
2022/03/11 08:06:16;;;;;;;6.47;3.05;;;;;;;;;;5036321;28;20056;-62
2022/03/11 08:08:43;;;;;;;5.50;3.40;;;;;;;;;;5036119;28;20033;-62
2022/03/11 08:11:09;;;;;;;6.18;3.03;;;;;;;;;;5038889;28;20025;-62
2022/03/11 08:13:35;;;;;;;7.25;3.13;;;;;;;;;;5044789;28;20045;-62
2022/03/11 08:16:02;;;;;;;3.92;2.35;;;;;;;;;;5043631;28;20033;-62
2022/03/11 08:18:29;;;;;;;6.35;1.80;;;;;;;;;;5043376;28;20155;-62
2022/03/11 08:20:55;;;;;;;2.58;1.65;;;;;;;;;;5038946;28;20396;-62
2022/03/11 08:23:21;;;;;;;4.85;1.65;;;;;;;;;;5045787;28;20037;-62
2022/03/11 08:25:47;;;;;;;9.50;2.25;;;;;;;;;;5046711;28;20143;-62
2022/03/11 08:28:14;;;;;;;6.50;1.52;;;;;;;;;;5044255;28;20045;-62
2022/03/11 08:30:43;;;;;;;4.20;1.35;;;;;;;;;;5039481;28;20402;-62
2022/03/11 08:33:11;;;;;;;4.18;1.17;;;;;;;;;;5045758;28;20024;-62
2022/03/11 08:35:38;;;;;;;8.10;1.58;;;;;;;;;;5046984;28;20025;-62
2022/03/11 08:38:06;;;;;;;4.05;1.20;;;;;;;;;;5040234;28;20424;-62
2022/03/11 08:40:32;;;;;;;4.30;1.50;;;;;;;;;;5043336;28;20080;-62
2022/03/11 08:42:59;;;;;;;7.07;1.10;;;;;;;;;;5040541;28;20087;-62
2022/03/11 08:45:25;;;;;;;4.20;2.10;;;;;;;;;;5041267;28;20017;-62
2022/03/11 08:47:52;;;;;;;4.47;1.40;;;;;;;;;;5048427;28;20032;-62
2022/03/11 08:50:18;;;;;;;8.15;1.20;;;;;;;;;;5040646;28;20040;-62
2022/03/11 08:52:45;;;;;;;5.68;1.88;;;;;;;;;;5045273;28;20040;-62
2022/03/11 08:55:12;;;;;;;4.25;1.27;;;;;;;;;;5047222;28;20017;-62
2022/03/11 08:57:38;;;;;;;2.38;1.20;;;;;;;;;;5041290;28;20025;-62
2022/03/11 09:00:12;;;;;;;6.20;1.73;;;;;;;;;;5033219;28;20409;-62
2022/03/11 09:02:38;;;;;;;8.60;1.70;;;;;;;;;;5044909;28;20048;-62
2022/03/11 09:05:05;;;;;;;5.85;1.98;;;;;;;;;;5043703;28;20067;-62
2022/03/11 09:07:32;;;;;;;9.75;2.13;;;;;;;;;;5038240;28;20025;-62
2022/03/11 09:10:00;;;;;;;5.80;1.83;;;;;;;;;;5039611;28;20021;-62
2022/03/11 09:12:26;;;;;;;6.40;2.30;;;;;;;;;;5042117;28;20124;-62
2022/03/11 09:14:53;;;;;;;5.80;2.47;;;;;;;;;;5038413;28;20025;-62
2022/03/11 09:17:20;;;;;;;4.78;1.63;;;;;;;;;;5041120;28;20125;-62
2022/03/11 09:19:46;;;;;;;6.65;1.80;;;;;;;;;;5047421;28;20551;-62
2022/03/11 09:22:12;;;;;;;7.13;2.00;;;;;;;;;;5047987;28;20028;-62
2022/03/11 09:24:40;;;;;;;6.78;1.63;;;;;;;;;;5044262;28;20021;-62
2022/03/11 09:27:06;;;;;;;4.95;1.30;;;;;;;;;;5043699;28;20028;-62
2022/03/11 09:29:33;;;;;;;5.57;1.27;;;;;;;;;;5038176;28;20045;-62
2022/03/11 09:31:59;;;;;;;9.95;1.35;;;;;;;;;;5039719;28;20439;-62
2022/03/11 09:34:25;;;;;;;5.95;1.50;;;;;;;;;;5042566;28;20028;-62
2022/03/11 09:36:52;;;;;;;3.10;1.80;;;;;;;;;;5033833;28;20033;-62
2022/03/11 09:39:19;;;;;;;7.63;1.70;;;;;;;;;;5033476;28;20029;-62
2022/03/11 09:41:46;;;;;;;6.47;1.23;;;;;;;;;;5043967;28;20028;-62
2022/03/11 09:44:14;;;;;;;6.50;1.58;;;;;;;;;;5032747;28;20059;-62
2022/03/11 09:46:41;;;;;;;3.75;1.40;;;;;;;;;;5041174;28;20504;-62
2022/03/11 09:49:07;;;;;;;5.72;1.40;;;;;;;;;;5039762;28;20424;-62
2022/03/11 09:51:34;;;;;;;7.00;1.55;;;;;;;;;;5034786;28;20091;-62
2022/03/11 09:54:01;;;;;;;7.68;1.73;;;;;;;;;;5043890;28;20025;-62
2022/03/11 09:56:27;;;;;;;6.93;0.98;;;;;;;;;;5039748;28;20029;-63
2022/03/11 09:58:56;;;;;;;11.20;1.55;;;;;;;;;;5036493;28;20032;-62
2022/03/11 10:01:22;;;;;;;8.63;1.63;;;;;;;;;;5044403;28;20044;-62
2022/03/11 10:03:48;;;;;;;9.20;2.10;;;;;;;;;;5045566;28;20025;-62
2022/03/11 10:06:14;;;;;;;9.73;1.98;;;;;;;;;;5048583;28;20641;-62
2022/03/11 10:08:46;;;;;;;7.10;1.85;;;;;;;;;;5040662;28;20033;-62
2022/03/11 10:11:22;;;;;;;10.18;1.50;;;;;;;;;;5040789;28;20416;-62
2022/03/11 10:13:51;;;;;;;9.57;1.92;;;;;;;;;;5042399;28;20049;-62
2022/03/11 10:16:27;;;;;;;8.13;1.25;;;;;;;;;;5035860;28;20017;-63
2022/03/11 10:18:58;;;;;;;5.10;1.40;;;;;;;;;;5040257;28;20025;-62
2022/03/11 10:21:29;;;;;;;12.82;1.73;;;;;;;;;;5041493;28;20099;-63
2022/03/11 10:23:56;;;;;;;7.03;1.20;;;;;;;;;;5045562;28;20116;-62
2022/03/11 10:26:39;;;;;;;5.20;1.45;;;;;;;;;;5037780;28;20022;-62
2022/03/11 10:29:06;;;;;;;6.15;1.30;;;;;;;;;;5044099;28;20055;-63
2022/03/11 10:31:33;;;;;;;11.77;1.52;;;;;;;;;;5043264;28;20038;-63
2022/03/11 10:34:11;;;;;;;5.40;1.27;;;;;;;;;;5044502;28;20037;-62
2022/03/11 10:36:39;;;;;;;10.32;1.48;;;;;;;;;;5038467;28;20032;-63
2022/03/11 10:39:15;;;;;;;8.77;1.17;;;;;;;;;;5043548;28;20021;-63
2022/03/11 10:41:41;;;;;;;3.97;1.20;;;;;;;;;;5041112;28;20435;-63
2022/03/11 10:44:12;;;;;;;11.95;1.52;;;;;;;;;;5039849;28;20090;-63
2022/03/11 10:46:40;;;;;;;5.10;1.38;;;;;;;;;;5034533;28;20035;-63
2022/03/11 10:49:06;;;;;;;10.68;1.50;;;;;;;;;;5039749;28;20108;-63
2022/03/11 10:51:33;;;;;;;6.13;1.10;;;;;;;;;;5045443;28;20467;-63
2022/03/11 10:54:00;;;;;;;4.07;1.50;;;;;;;;;;5039893;28;20037;-63
2022/03/11 10:56:34;;;;;;;4.55;1.08;;;;;;;;;;5043723;28;20449;-63
2022/03/11 10:59:03;;;;;;;11.63;1.70;;;;;;;;;;5044482;28;20148;-63
2022/03/11 11:01:38;;;;;;;7.20;1.80;;;;;;;;;;5049076;28;20036;-62
2022/03/11 11:04:05;;;;;;;7.88;2.20;;;;;;;;;;5042572;28;20021;-63
2022/03/11 11:06:31;;;;;;;13.40;2.10;;;;;;;;;;5047836;28;20037;-63
2022/03/11 11:08:57;;;;;;;8.68;1.65;;;;;;;;;;5052347;28;20480;-63
2022/03/11 11:11:24;;;;;;;12.43;2.08;;;;;;;;;;5041106;28;20033;-63
2022/03/11 11:13:50;;;;;;;9.32;1.77;;;;;;;;;;5040573;28;20033;-63
2022/03/11 11:16:18;;;;;;;5.57;1.25;;;;;;;;;;5054812;28;20028;-63
2022/03/11 11:18:47;;;;;;;13.40;2.75;;;;;;;;;;5045067;28;20405;-63
2022/03/11 11:21:19;;;;;;;12.00;2.75;;;;;;;;;;5053761;28;20061;-62
2022/03/11 11:23:45;;;;;;;8.60;1.90;;;;;;;;;;5053233;28;20029;-62
2022/03/11 11:26:12;;;;;;;8.60;1.30;;;;;;;;;;5052231;28;20078;-62
2022/03/11 11:28:39;;;;;;;8.52;1.63;;;;;;;;;;5043973;28;20029;-62
2022/03/11 11:31:05;;;;;;;7.60;1.80;;;;;;;;;;5046597;28;20023;-62
2022/03/11 11:33:31;;;;;;;8.68;1.77;;;;;;;;;;5038563;28;20437;-63
2022/03/11 11:36:02;;;;;;;18.40;3.25;;;;;;;;;;5044679;28;20033;-63
2022/03/11 11:38:28;;;;;;;19.02;2.95;;;;;;;;;;5053511;28;20055;-62
2022/03/11 11:40:54;;;;;;;16.95;2.08;;;;;;;;;;5037313;28;20382;-62
2022/03/11 11:43:28;;;;;;;14.68;2.10;;;;;;;;;;5045745;28;20120;-62
2022/03/11 11:46:03;;;;;;;20.08;2.45;;;;;;;;;;5035609;28;20397;-63
2022/03/11 11:48:35;;;;;;;13.02;2.22;;;;;;;;;;5047638;28;20067;-62
2022/03/11 11:51:03;;;;;;;13.73;2.45;;;;;;;;;;5043971;28;20033;-62
2022/03/11 11:53:36;;;;;;;15.68;3.13;;;;;;;;;;5044531;28;20030;-63
2022/03/11 11:56:22;;;;;;;17.17;2.78;;;;;;;;;;5048711;28;20078;-63
2022/03/11 11:58:51;;;;;;;19.88;3.42;;;;;;;;;;5044697;28;20033;-63
2022/03/11 12:01:36;;;;;;;14.27;2.72;;;;;;;;;;5044510;28;20070;-62
2022/03/11 12:04:21;;;;;;;11.45;2.28;;;;;;;;;;5034857;28;20053;-63
2022/03/11 12:07:14;;;;;;;12.43;2.30;;;;;;;;;;5035488;28;20025;-63
2022/03/11 12:09:40;;;;;;;21.92;2.72;;;;;;;;;;5045819;28;20485;-63
2022/03/11 12:12:06;;;;;;;15.80;2.53;;;;;;;;;;5050172;28;20037;-63
2022/03/11 12:14:33;;;;;;;17.25;2.45;;;;;;;;;;5053923;28;20485;-62
2022/03/11 12:17:01;;;;;;;14.85;2.78;;;;;;;;;;5043650;28;20084;-63
2022/03/11 12:19:37;;;;;;;15.50;2.75;;;;;;;;;;5035094;28;20037;-63
2022/03/11 12:22:21;;;;;;;12.00;2.92;;;;;;;;;;5037361;28;20063;-63
2022/03/11 12:24:57;;;;;;;15.15;2.60;;;;;;;;;;5033886;28;20040;-63
2022/03/11 12:27:42;;;;;;;20.25;3.17;;;;;;;;;;5039403;28;20515;-63
2022/03/11 12:30:10;;;;;;;20.15;3.05;;;;;;;;;;5042158;28;20396;-62
2022/03/11 12:32:38;;;;;;;11.13;2.78;;;;;;;;;;5037989;28;20025;-63
2022/03/11 12:35:05;;;;;;;11.25;3.08;;;;;;;;;;5046292;28;20454;-63
2022/03/11 12:37:32;;;;;;;11.63;2.05;;;;;;;;;;5045689;28;20036;-63
2022/03/11 12:40:01;;;;;;;12.25;2.90;;;;;;;;;;5046669;28;20040;-63
2022/03/11 12:42:40;;;;;;;10.85;2.00;;;;;;;;;;5039866;28;20371;-63
2022/03/11 12:45:06;;;;;;;8.45;2.55;;;;;;;;;;5044450;28;20029;-63
2022/03/11 12:47:39;;;;;;;12.88;2.25;;;;;;;;;;5042912;28;20074;-63
2022/03/11 12:50:08;;;;;;;13.05;2.20;;;;;;;;;;5039866;28;20042;-63
2022/03/11 12:52:37;;;;;;;12.15;3.17;;;;;;;;;;5048854;28;20021;-63
2022/03/11 12:55:25;;;;;;;10.57;2.00;;;;;;;;;;5037229;28;20044;-63
2022/03/11 12:57:52;;;;;;;12.07;2.00;;;;;;;;;;5034727;28;20025;-63
2022/03/11 13:00:22;;;;;;;11.80;1.88;;;;;;;;;;5039337;28;20037;-63
2022/03/11 13:02:49;;;;;;;13.50;1.77;;;;;;;;;;5042593;28;20064;-63
2022/03/11 13:05:19;;;;;;;9.10;1.95;;;;;;;;;;5033800;28;20533;-63
2022/03/11 13:07:46;;;;;;;17.02;2.17;;;;;;;;;;5037476;28;20033;-63
2022/03/11 13:10:15;;;;;;;9.30;1.90;;;;;;;;;;5042600;28;20036;-63
2022/03/11 13:12:44;;;;;;;8.75;2.25;;;;;;;;;;5042378;28;20124;-63
2022/03/11 13:15:11;;;;;;;12.68;1.80;;;;;;;;;;5040436;28;20071;-63
2022/03/11 13:17:47;;;;;;;11.07;2.17;;;;;;;;;;5045333;28;20029;-63
2022/03/11 13:20:31;;;;;;;8.65;1.73;;;;;;;;;;5042870;28;20021;-63
2022/03/11 13:23:08;;;;;;;13.18;2.38;;;;;;;;;;5040624;28;20528;-63
2022/03/11 13:25:34;;;;;;;14.93;3.40;;;;;;;;;;5039987;28;20033;-63
2022/03/11 13:28:00;;;;;;;22.20;3.05;;;;;;;;;;5039871;28;20482;-63
2022/03/11 13:30:35;;;;;;;16.13;2.15;;;;;;;;;;5039695;28;20033;-63
2022/03/11 13:33:11;;;;;;;17.48;2.20;;;;;;;;;;5042130;28;20037;-63
2022/03/11 13:35:38;;;;;;;18.80;2.40;;;;;;;;;;5042577;28;20448;-63
2022/03/11 13:38:04;;;;;;;15.30;2.50;;;;;;;;;;5037581;28;20021;-63
2022/03/11 13:40:30;;;;;;;13.23;2.53;;;;;;;;;;5040733;28;20029;-63
2022/03/11 13:43:00;;;;;;;15.82;2.33;;;;;;;;;;5043984;28;20497;-63
2022/03/11 13:45:30;;;;;;;15.85;2.80;;;;;;;;;;5038189;28;20061;-62
2022/03/11 13:48:06;;;;;;;12.73;2.33;;;;;;;;;;5042906;28;20037;-63
2022/03/11 13:50:32;;;;;;;17.95;2.60;;;;;;;;;;5041739;28;20436;-63
2022/03/11 13:52:59;;;;;;;12.23;2.10;;;;;;;;;;5047575;28;20033;-63
2022/03/11 13:55:38;;;;;;;14.30;2.53;;;;;;;;;;5042758;28;20021;-63
2022/03/11 13:58:17;;;;;;;15.85;2.58;;;;;;;;;;5034026;28;20021;-63
2022/03/11 14:00:43;;;;;;;13.27;2.08;;;;;;;;;;5042581;28;20029;-62
2022/03/11 14:03:28;;;;;;;13.20;2.60;;;;;;;;;;5034748;28;20167;-62
2022/03/11 14:05:55;;;;;;;9.52;2.15;;;;;;;;;;5043472;28;20427;-63
2022/03/11 14:08:25;;;;;;;14.10;1.95;;;;;;;;;;5033758;28;20120;-62
2022/03/11 14:10:52;;;;;;;8.48;2.15;;;;;;;;;;5040965;28;20132;-63
2022/03/11 14:13:25;;;;;;;7.10;1.52;;;;;;;;;;5045694;28;20052;-62
2022/03/11 14:15:52;;;;;;;11.32;2.78;;;;;;;;;;5048048;28;20037;-63
2022/03/11 14:18:23;;;;;;;9.73;2.00;;;;;;;;;;5038474;28;20036;-62
2022/03/11 14:20:50;;;;;;;10.75;1.55;;;;;;;;;;5041290;28;20041;-63
2022/03/11 14:23:16;;;;;;;9.88;1.67;;;;;;;;;;5041426;28;20048;-62
2022/03/11 14:25:42;;;;;;;13.27;2.15;;;;;;;;;;5041056;28;20030;-63
2022/03/11 14:28:09;;;;;;;10.98;1.90;;;;;;;;;;5035662;28;20159;-63
2022/03/11 14:30:39;;;;;;;10.38;1.83;;;;;;;;;;5035785;28;20678;-63
2022/03/11 14:33:06;;;;;;;11.93;2.10;;;;;;;;;;5043305;28;20026;-63
2022/03/11 14:35:33;;;;;;;7.72;1.60;;;;;;;;;;5050200;28;20123;-63
2022/03/11 14:38:04;;;;;;;9.15;1.67;;;;;;;;;;5039748;28;20026;-63
2022/03/11 14:40:31;;;;;;;11.45;2.13;;;;;;;;;;5037415;28;20461;-63
2022/03/11 14:42:57;;;;;;;10.77;2.70;;;;;;;;;;5041452;28;20030;-63